sensor_id;sensor_type;location;lat;lon;timestamp;temperature;humidity
37560;DHT22;23398;50.928;7.084;2023-10-09T00:02:12;15.90;94.20
37560;DHT22;23398;50.928;7.084;2023-10-09T00:04:39;15.90;94.30
37560;DHT22;23398;50.928;7.084;2023-10-09T00:07:11;15.90;94.30
37560;DHT22;23398;50.928;7.084;2023-10-09T00:09:38;15.90;94.30
37560;DHT22;23398;50.928;7.084;2023-10-09T00:12:14;15.90;94.70
37560;DHT22;23398;50.928;7.084;2023-10-09T00:14:42;15.90;94.30
37560;DHT22;23398;50.928;7.084;2023-10-09T00:17:16;15.90;94.20
37560;DHT22;23398;50.928;7.084;2023-10-09T00:19:45;15.90;94.20
37560;DHT22;23398;50.928;7.084;2023-10-09T00:22:13;15.90;94.50
37560;DHT22;23398;50.928;7.084;2023-10-09T00:24:54;15.90;94.70
37560;DHT22;23398;50.928;7.084;2023-10-09T00:27:40;15.90;94.80
37560;DHT22;23398;50.928;7.084;2023-10-09T00:30:15;15.90;94.80
37560;DHT22;23398;50.928;7.084;2023-10-09T00:32:45;15.90;94.50
37560;DHT22;23398;50.928;7.084;2023-10-09T00:35:27;16.00;94.30
37560;DHT22;23398;50.928;7.084;2023-10-09T00:38:08;15.90;94.10
37560;DHT22;23398;50.928;7.084;2023-10-09T00:40:40;15.90;93.90
37560;DHT22;23398;50.928;7.084;2023-10-09T00:43:15;15.90;93.60
37560;DHT22;23398;50.928;7.084;2023-10-09T00:45:41;15.90;93.90
37560;DHT22;23398;50.928;7.084;2023-10-09T00:48:09;15.80;93.90
37560;DHT22;23398;50.928;7.084;2023-10-09T00:50:35;15.80;93.70
37560;DHT22;23398;50.928;7.084;2023-10-09T00:53:02;15.80;93.80
37560;DHT22;23398;50.928;7.084;2023-10-09T00:55:32;15.80;94.00
37560;DHT22;23398;50.928;7.084;2023-10-09T00:58:11;15.70;93.90
37560;DHT22;23398;50.928;7.084;2023-10-09T01:00:38;15.70;93.90
37560;DHT22;23398;50.928;7.084;2023-10-09T01:03:15;15.60;93.80
37560;DHT22;23398;50.928;7.084;2023-10-09T01:05:42;15.60;94.30
37560;DHT22;23398;50.928;7.084;2023-10-09T01:08:17;15.60;94.10
37560;DHT22;23398;50.928;7.084;2023-10-09T01:10:50;15.60;94.30
37560;DHT22;23398;50.928;7.084;2023-10-09T01:13:18;15.50;94.50
37560;DHT22;23398;50.928;7.084;2023-10-09T01:15:44;15.50;94.70
37560;DHT22;23398;50.928;7.084;2023-10-09T01:18:11;15.50;94.50
37560;DHT22;23398;50.928;7.084;2023-10-09T01:20:37;15.50;94.60
37560;DHT22;23398;50.928;7.084;2023-10-09T01:23:11;15.40;94.30
37560;DHT22;23398;50.928;7.084;2023-10-09T01:25:37;15.40;94.40
37560;DHT22;23398;50.928;7.084;2023-10-09T01:28:11;15.40;94.70
37560;DHT22;23398;50.928;7.084;2023-10-09T01:30:41;15.30;94.70
37560;DHT22;23398;50.928;7.084;2023-10-09T01:33:08;15.30;94.60
37560;DHT22;23398;50.928;7.084;2023-10-09T01:35:44;15.30;94.70
37560;DHT22;23398;50.928;7.084;2023-10-09T01:38:15;15.30;95.00
37560;DHT22;23398;50.928;7.084;2023-10-09T01:40:41;15.30;95.00
37560;DHT22;23398;50.928;7.084;2023-10-09T01:43:08;15.30;94.90
37560;DHT22;23398;50.928;7.084;2023-10-09T01:45:38;15.30;94.90
37560;DHT22;23398;50.928;7.084;2023-10-09T01:48:12;15.30;95.10
37560;DHT22;23398;50.928;7.084;2023-10-09T01:50:40;15.30;95.30
37560;DHT22;23398;50.928;7.084;2023-10-09T01:53:08;15.30;95.60
37560;DHT22;23398;50.928;7.084;2023-10-09T01:55:34;15.30;95.90
37560;DHT22;23398;50.928;7.084;2023-10-09T01:58:06;15.30;96.20
37560;DHT22;23398;50.928;7.084;2023-10-09T02:00:48;15.30;96.40
37560;DHT22;23398;50.928;7.084;2023-10-09T02:03:27;15.40;96.50
37560;DHT22;23398;50.928;7.084;2023-10-09T02:05:55;15.40;96.60
37560;DHT22;23398;50.928;7.084;2023-10-09T02:08:28;15.50;96.70
37560;DHT22;23398;50.928;7.084;2023-10-09T02:10:56;15.60;96.70
37560;DHT22;23398;50.928;7.084;2023-10-09T02:13:22;15.60;96.70
37560;DHT22;23398;50.928;7.084;2023-10-09T02:16:00;15.70;96.80
37560;DHT22;23398;50.928;7.084;2023-10-09T02:18:42;15.70;96.70
37560;DHT22;23398;50.928;7.084;2023-10-09T02:21:24;15.90;96.50
37560;DHT22;23398;50.928;7.084;2023-10-09T02:24:03;15.90;96.20
37560;DHT22;23398;50.928;7.084;2023-10-09T02:26:31;15.80;96.00
37560;DHT22;23398;50.928;7.084;2023-10-09T02:28:59;15.90;95.90
37560;DHT22;23398;50.928;7.084;2023-10-09T02:31:26;15.90;95.80
37560;DHT22;23398;50.928;7.084;2023-10-09T02:33:54;15.90;95.80
37560;DHT22;23398;50.928;7.084;2023-10-09T02:36:21;16.00;95.60
37560;DHT22;23398;50.928;7.084;2023-10-09T02:38:47;16.00;95.40
37560;DHT22;23398;50.928;7.084;2023-10-09T02:41:15;16.00;95.40
37560;DHT22;23398;50.928;7.084;2023-10-09T02:43:41;16.00;95.30
37560;DHT22;23398;50.928;7.084;2023-10-09T02:46:17;16.00;95.40
37560;DHT22;23398;50.928;7.084;2023-10-09T02:48:44;16.00;95.50
37560;DHT22;23398;50.928;7.084;2023-10-09T02:51:33;16.00;95.60
37560;DHT22;23398;50.928;7.084;2023-10-09T02:54:03;16.00;95.70
37560;DHT22;23398;50.928;7.084;2023-10-09T02:56:53;16.10;95.80
37560;DHT22;23398;50.928;7.084;2023-10-09T02:59:22;16.10;95.80
37560;DHT22;23398;50.928;7.084;2023-10-09T03:01:48;16.10;95.70
37560;DHT22;23398;50.928;7.084;2023-10-09T03:04:14;16.10;95.70
37560;DHT22;23398;50.928;7.084;2023-10-09T03:06:41;16.20;95.60
37560;DHT22;23398;50.928;7.084;2023-10-09T03:09:17;16.20;95.50
37560;DHT22;23398;50.928;7.084;2023-10-09T03:11:47;16.20;95.50
37560;DHT22;23398;50.928;7.084;2023-10-09T03:14:14;16.20;95.50
37560;DHT22;23398;50.928;7.084;2023-10-09T03:16:41;16.20;95.50
37560;DHT22;23398;50.928;7.084;2023-10-09T03:19:08;16.20;95.40
37560;DHT22;23398;50.928;7.084;2023-10-09T03:21:36;16.20;95.20
37560;DHT22;23398;50.928;7.084;2023-10-09T03:24:02;16.20;95.10
37560;DHT22;23398;50.928;7.084;2023-10-09T03:26:30;16.20;95.00
37560;DHT22;23398;50.928;7.084;2023-10-09T03:28:56;16.20;95.00
37560;DHT22;23398;50.928;7.084;2023-10-09T03:31:29;16.20;95.00
37560;DHT22;23398;50.928;7.084;2023-10-09T03:33:56;16.20;94.90
37560;DHT22;23398;50.928;7.084;2023-10-09T03:36:22;16.20;95.10
37560;DHT22;23398;50.928;7.084;2023-10-09T03:38:52;16.20;95.20
37560;DHT22;23398;50.928;7.084;2023-10-09T03:41:20;16.20;95.10
37560;DHT22;23398;50.928;7.084;2023-10-09T03:43:47;16.20;94.90
37560;DHT22;23398;50.928;7.084;2023-10-09T03:46:12;16.20;95.10
37560;DHT22;23398;50.928;7.084;2023-10-09T03:48:49;16.20;95.30
37560;DHT22;23398;50.928;7.084;2023-10-09T03:51:15;16.20;95.30
37560;DHT22;23398;50.928;7.084;2023-10-09T03:53:47;16.30;95.30
37560;DHT22;23398;50.928;7.084;2023-10-09T03:56:13;16.30;95.20
37560;DHT22;23398;50.928;7.084;2023-10-09T03:58:45;16.30;95.30
37560;DHT22;23398;50.928;7.084;2023-10-09T04:01:19;16.30;95.20
37560;DHT22;23398;50.928;7.084;2023-10-09T04:03:48;16.30;95.40
37560;DHT22;23398;50.928;7.084;2023-10-09T04:06:14;16.30;95.30
37560;DHT22;23398;50.928;7.084;2023-10-09T04:08:44;16.30;95.30
37560;DHT22;23398;50.928;7.084;2023-10-09T04:11:14;16.30;95.20
37560;DHT22;23398;50.928;7.084;2023-10-09T04:13:48;16.30;95.40
37560;DHT22;23398;50.928;7.084;2023-10-09T04:16:19;16.30;95.40
37560;DHT22;23398;50.928;7.084;2023-10-09T04:19:00;16.30;95.80
37560;DHT22;23398;50.928;7.084;2023-10-09T04:21:32;16.40;95.60
37560;DHT22;23398;50.928;7.084;2023-10-09T04:24:05;16.40;95.50
37560;DHT22;23398;50.928;7.084;2023-10-09T04:26:50;16.40;95.40
37560;DHT22;23398;50.928;7.084;2023-10-09T04:29:22;16.40;95.40
37560;DHT22;23398;50.928;7.084;2023-10-09T04:31:57;16.40;95.30
37560;DHT22;23398;50.928;7.084;2023-10-09T04:34:27;16.40;95.30
37560;DHT22;23398;50.928;7.084;2023-10-09T04:37:15;16.50;95.30
37560;DHT22;23398;50.928;7.084;2023-10-09T04:40:00;16.50;95.30
37560;DHT22;23398;50.928;7.084;2023-10-09T04:42:39;16.50;95.30
37560;DHT22;23398;50.928;7.084;2023-10-09T04:45:11;16.50;95.30
37560;DHT22;23398;50.928;7.084;2023-10-09T04:47:40;16.60;95.40
37560;DHT22;23398;50.928;7.084;2023-10-09T04:50:15;16.50;95.40
37560;DHT22;23398;50.928;7.084;2023-10-09T04:52:44;16.60;95.40
37560;DHT22;23398;50.928;7.084;2023-10-09T04:55:10;16.60;95.60
37560;DHT22;23398;50.928;7.084;2023-10-09T04:57:37;16.60;95.60
37560;DHT22;23398;50.928;7.084;2023-10-09T05:00:18;16.60;95.70
37560;DHT22;23398;50.928;7.084;2023-10-09T05:03:00;16.60;95.90
37560;DHT22;23398;50.928;7.084;2023-10-09T05:05:29;16.60;95.90
37560;DHT22;23398;50.928;7.084;2023-10-09T05:08:14;16.70;95.80
37560;DHT22;23398;50.928;7.084;2023-10-09T05:10:50;16.70;95.70
37560;DHT22;23398;50.928;7.084;2023-10-09T05:13:35;16.70;95.60
37560;DHT22;23398;50.928;7.084;2023-10-09T05:16:37;16.70;95.60
37560;DHT22;23398;50.928;7.084;2023-10-09T05:18:58;16.70;95.50
37560;DHT22;23398;50.928;7.084;2023-10-09T05:21:36;16.70;95.50
37560;DHT22;23398;50.928;7.084;2023-10-09T05:24:10;16.80;95.60
37560;DHT22;23398;50.928;7.084;2023-10-09T05:26:43;16.70;95.60
37560;DHT22;23398;50.928;7.084;2023-10-09T05:29:15;16.70;95.80
37560;DHT22;23398;50.928;7.084;2023-10-09T05:32:06;16.70;95.70
37560;DHT22;23398;50.928;7.084;2023-10-09T05:34:38;16.80;95.80
37560;DHT22;23398;50.928;7.084;2023-10-09T05:37:23;16.70;95.60
37560;DHT22;23398;50.928;7.084;2023-10-09T05:39:55;16.80;95.60
37560;DHT22;23398;50.928;7.084;2023-10-09T05:42:45;16.80;95.60
37560;DHT22;23398;50.928;7.084;2023-10-09T05:45:15;16.80;95.50
37560;DHT22;23398;50.928;7.084;2023-10-09T05:47:44;16.70;95.50
37560;DHT22;23398;50.928;7.084;2023-10-09T05:50:28;16.70;95.30
37560;DHT22;23398;50.928;7.084;2023-10-09T05:52:56;16.70;95.30
37560;DHT22;23398;50.928;7.084;2023-10-09T05:55:23;16.70;95.30
37560;DHT22;23398;50.928;7.084;2023-10-09T05:57:55;16.70;95.30
37560;DHT22;23398;50.928;7.084;2023-10-09T06:00:27;16.70;95.70
37560;DHT22;23398;50.928;7.084;2023-10-09T06:03:16;16.70;95.50
37560;DHT22;23398;50.928;7.084;2023-10-09T06:05:49;16.70;95.30
37560;DHT22;23398;50.928;7.084;2023-10-09T06:08:29;16.70;95.30
37560;DHT22;23398;50.928;7.084;2023-10-09T06:11:11;16.70;95.40
37560;DHT22;23398;50.928;7.084;2023-10-09T06:13:57;16.70;95.80
37560;DHT22;23398;50.928;7.084;2023-10-09T06:16:36;16.70;95.90
37560;DHT22;23398;50.928;7.084;2023-10-09T06:19:14;16.70;96.10
37560;DHT22;23398;50.928;7.084;2023-10-09T06:21:46;16.70;96.10
37560;DHT22;23398;50.928;7.084;2023-10-09T06:24:18;16.80;96.10
37560;DHT22;23398;50.928;7.084;2023-10-09T06:26:45;16.80;96.20
37560;DHT22;23398;50.928;7.084;2023-10-09T06:29:23;16.80;96.40
37560;DHT22;23398;50.928;7.084;2023-10-09T06:32:08;16.80;96.50
37560;DHT22;23398;50.928;7.084;2023-10-09T06:34:56;16.90;96.60
37560;DHT22;23398;50.928;7.084;2023-10-09T06:37:46;16.90;96.50
37560;DHT22;23398;50.928;7.084;2023-10-09T06:40:48;17.00;96.60
37560;DHT22;23398;50.928;7.084;2023-10-09T06:43:39;17.00;96.70
37560;DHT22;23398;50.928;7.084;2023-10-09T06:46:14;17.10;96.90
37560;DHT22;23398;50.928;7.084;2023-10-09T06:49:03;17.20;96.70
37560;DHT22;23398;50.928;7.084;2023-10-09T06:51:48;17.40;96.80
37560;DHT22;23398;50.928;7.084;2023-10-09T06:54:20;17.40;96.80
37560;DHT22;23398;50.928;7.084;2023-10-09T06:56:51;17.40;96.90
37560;DHT22;23398;50.928;7.084;2023-10-09T06:59:19;17.50;97.10
37560;DHT22;23398;50.928;7.084;2023-10-09T07:01:49;17.60;96.90
37560;DHT22;23398;50.928;7.084;2023-10-09T07:04:36;17.60;97.20
37560;DHT22;23398;50.928;7.084;2023-10-09T07:07:02;17.80;97.30
37560;DHT22;23398;50.928;7.084;2023-10-09T07:09:33;17.90;97.40
37560;DHT22;23398;50.928;7.084;2023-10-09T07:12:11;18.00;97.50
37560;DHT22;23398;50.928;7.084;2023-10-09T07:14:46;18.10;97.40
37560;DHT22;23398;50.928;7.084;2023-10-09T07:17:11;18.30;97.30
37560;DHT22;23398;50.928;7.084;2023-10-09T07:19:56;18.40;97.20
37560;DHT22;23398;50.928;7.084;2023-10-09T07:22:35;18.50;97.00
37560;DHT22;23398;50.928;7.084;2023-10-09T07:25:05;18.70;96.80
37560;DHT22;23398;50.928;7.084;2023-10-09T07:27:41;18.80;96.70
37560;DHT22;23398;50.928;7.084;2023-10-09T07:30:14;18.90;96.60
37560;DHT22;23398;50.928;7.084;2023-10-09T07:32:59;19.10;96.50
37560;DHT22;23398;50.928;7.084;2023-10-09T07:35:41;19.20;96.20
37560;DHT22;23398;50.928;7.084;2023-10-09T07:40:40;19.40;95.70
37560;DHT22;23398;50.928;7.084;2023-10-09T07:43:28;19.60;95.80
37560;DHT22;23398;50.928;7.084;2023-10-09T07:46:11;19.60;95.70
37560;DHT22;23398;50.928;7.084;2023-10-09T07:48:36;19.80;95.90
37560;DHT22;23398;50.928;7.084;2023-10-09T07:51:14;19.90;96.10
37560;DHT22;23398;50.928;7.084;2023-10-09T07:53:40;20.20;96.10
37560;DHT22;23398;50.928;7.084;2023-10-09T07:56:13;20.40;96.20
37560;DHT22;23398;50.928;7.084;2023-10-09T07:58:47;20.80;95.70
37560;DHT22;23398;50.928;7.084;2023-10-09T08:01:13;21.10;95.40
37560;DHT22;23398;50.928;7.084;2023-10-09T08:03:49;21.40;94.70
37560;DHT22;23398;50.928;7.084;2023-10-09T08:06:25;21.80;93.70
37560;DHT22;23398;50.928;7.084;2023-10-09T08:09:10;22.10;92.40
37560;DHT22;23398;50.928;7.084;2023-10-09T08:11:46;22.40;91.60
37560;DHT22;23398;50.928;7.084;2023-10-09T08:14:13;22.60;90.60
37560;DHT22;23398;50.928;7.084;2023-10-09T08:16:57;22.70;90.20
37560;DHT22;23398;50.928;7.084;2023-10-09T08:19:40;22.90;90.00
37560;DHT22;23398;50.928;7.084;2023-10-09T08:22:36;23.00;88.40
37560;DHT22;23398;50.928;7.084;2023-10-09T08:25:18;23.10;87.10
37560;DHT22;23398;50.928;7.084;2023-10-09T08:28:04;23.10;86.10
37560;DHT22;23398;50.928;7.084;2023-10-09T08:30:48;23.10;85.50
37560;DHT22;23398;50.928;7.084;2023-10-09T08:33:17;23.20;85.00
37560;DHT22;23398;50.928;7.084;2023-10-09T08:35:55;23.20;85.00
37560;DHT22;23398;50.928;7.084;2023-10-09T08:38:27;23.20;85.60
37560;DHT22;23398;50.928;7.084;2023-10-09T08:41:09;23.20;85.50
37560;DHT22;23398;50.928;7.084;2023-10-09T08:43:47;23.30;84.60
37560;DHT22;23398;50.928;7.084;2023-10-09T08:46:15;23.40;84.20
37560;DHT22;23398;50.928;7.084;2023-10-09T08:48:45;23.40;83.30
37560;DHT22;23398;50.928;7.084;2023-10-09T08:51:11;23.50;82.60
37560;DHT22;23398;50.928;7.084;2023-10-09T08:53:37;23.50;81.70
37560;DHT22;23398;50.928;7.084;2023-10-09T08:56:12;23.50;81.50
37560;DHT22;23398;50.928;7.084;2023-10-09T08:58:40;23.50;82.20
37560;DHT22;23398;50.928;7.084;2023-10-09T09:01:06;23.50;83.30
37560;DHT22;23398;50.928;7.084;2023-10-09T09:03:40;23.50;83.00
37560;DHT22;23398;50.928;7.084;2023-10-09T09:06:09;23.60;83.50
37560;DHT22;23398;50.928;7.084;2023-10-09T09:08:35;23.60;83.70
37560;DHT22;23398;50.928;7.084;2023-10-09T09:11:08;23.80;83.60
37560;DHT22;23398;50.928;7.084;2023-10-09T09:13:44;23.90;82.50
37560;DHT22;23398;50.928;7.084;2023-10-09T09:16:21;24.10;82.80
37560;DHT22;23398;50.928;7.084;2023-10-09T09:21:41;24.40;80.30
37560;DHT22;23398;50.928;7.084;2023-10-09T09:24:09;24.60;78.70
37560;DHT22;23398;50.928;7.084;2023-10-09T09:27:01;24.80;77.50
37560;DHT22;23398;50.928;7.084;2023-10-09T09:29:47;24.80;76.40
37560;DHT22;23398;50.928;7.084;2023-10-09T09:32:37;24.90;75.90
37560;DHT22;23398;50.928;7.084;2023-10-09T09:35:04;25.00;75.90
37560;DHT22;23398;50.928;7.084;2023-10-09T09:37:52;25.10;75.90
37560;DHT22;23398;50.928;7.084;2023-10-09T09:40:18;25.10;75.20
37560;DHT22;23398;50.928;7.084;2023-10-09T09:42:57;25.20;74.60
37560;DHT22;23398;50.928;7.084;2023-10-09T09:45:35;25.40;74.10
37560;DHT22;23398;50.928;7.084;2023-10-09T09:48:03;25.60;73.50
37560;DHT22;23398;50.928;7.084;2023-10-09T09:50:35;26.00;74.90
37560;DHT22;23398;50.928;7.084;2023-10-09T09:53:16;26.00;72.40
37560;DHT22;23398;50.928;7.084;2023-10-09T09:55:51;26.20;71.40
37560;DHT22;23398;50.928;7.084;2023-10-09T09:58:23;26.50;70.10
37560;DHT22;23398;50.928;7.084;2023-10-09T10:00:53;26.60;69.40
37560;DHT22;23398;50.928;7.084;2023-10-09T10:03:36;26.80;69.50
37560;DHT22;23398;50.928;7.084;2023-10-09T10:06:05;27.00;70.30
37560;DHT22;23398;50.928;7.084;2023-10-09T10:08:35;27.20;70.70
37560;DHT22;23398;50.928;7.084;2023-10-09T10:11:07;27.50;70.20
37560;DHT22;23398;50.928;7.084;2023-10-09T10:16:14;28.30;68.90
37560;DHT22;23398;50.928;7.084;2023-10-09T10:19:26;28.80;66.70
37560;DHT22;23398;50.928;7.084;2023-10-09T10:21:45;29.20;64.50
37560;DHT22;23398;50.928;7.084;2023-10-09T10:32:59;30.50;59.70
37560;DHT22;23398;50.928;7.084;2023-10-09T10:35:43;30.70;58.90
37560;DHT22;23398;50.928;7.084;2023-10-09T10:38:31;30.90;57.80
37560;DHT22;23398;50.928;7.084;2023-10-09T10:41:20;30.90;57.00
37560;DHT22;23398;50.928;7.084;2023-10-09T10:43:48;31.00;56.40
37560;DHT22;23398;50.928;7.084;2023-10-09T10:46:19;31.00;56.00
37560;DHT22;23398;50.928;7.084;2023-10-09T10:48:50;31.00;56.30
37560;DHT22;23398;50.928;7.084;2023-10-09T10:51:24;31.00;55.80
37560;DHT22;23398;50.928;7.084;2023-10-09T10:54:00;31.00;55.10
37560;DHT22;23398;50.928;7.084;2023-10-09T10:56:46;31.00;55.80
37560;DHT22;23398;50.928;7.084;2023-10-09T10:59:19;30.90;55.40
37560;DHT22;23398;50.928;7.084;2023-10-09T11:01:49;30.90;55.30
37560;DHT22;23398;50.928;7.084;2023-10-09T11:04:17;30.80;55.70
37560;DHT22;23398;50.928;7.084;2023-10-09T11:06:56;30.80;55.10
37560;DHT22;23398;50.928;7.084;2023-10-09T11:09:26;30.70;55.00
37560;DHT22;23398;50.928;7.084;2023-10-09T11:12:07;30.60;56.10
37560;DHT22;23398;50.928;7.084;2023-10-09T11:14:47;30.60;55.60
37560;DHT22;23398;50.928;7.084;2023-10-09T11:17:32;30.50;55.60
37560;DHT22;23398;50.928;7.084;2023-10-09T11:19:58;30.40;56.00
37560;DHT22;23398;50.928;7.084;2023-10-09T11:22:36;30.30;55.50
37560;DHT22;23398;50.928;7.084;2023-10-09T11:25:05;30.30;55.60
37560;DHT22;23398;50.928;7.084;2023-10-09T11:27:37;30.20;55.00
37560;DHT22;23398;50.928;7.084;2023-10-09T11:30:05;30.20;55.60
37560;DHT22;23398;50.928;7.084;2023-10-09T11:32:36;30.20;55.60
37560;DHT22;23398;50.928;7.084;2023-10-09T11:35:12;30.20;55.30
37560;DHT22;23398;50.928;7.084;2023-10-09T11:37:40;30.20;55.20
37560;DHT22;23398;50.928;7.084;2023-10-09T11:40:28;30.20;55.10
37560;DHT22;23398;50.928;7.084;2023-10-09T11:43:00;30.20;55.70
37560;DHT22;23398;50.928;7.084;2023-10-09T11:45:26;30.20;55.10
37560;DHT22;23398;50.928;7.084;2023-10-09T11:47:57;30.30;55.20
37560;DHT22;23398;50.928;7.084;2023-10-09T11:50:51;30.30;54.30
37560;DHT22;23398;50.928;7.084;2023-10-09T11:53:22;30.30;54.20
37560;DHT22;23398;50.928;7.084;2023-10-09T11:55:48;30.20;53.60
37560;DHT22;23398;50.928;7.084;2023-10-09T11:58:21;30.20;53.50
37560;DHT22;23398;50.928;7.084;2023-10-09T12:03:29;30.00;53.10
37560;DHT22;23398;50.928;7.084;2023-10-09T12:05:59;29.90;52.50
37560;DHT22;23398;50.928;7.084;2023-10-09T12:08:30;29.80;52.50
37560;DHT22;23398;50.928;7.084;2023-10-09T12:10:55;29.60;52.80
37560;DHT22;23398;50.928;7.084;2023-10-09T12:13:24;29.50;53.30
37560;DHT22;23398;50.928;7.084;2023-10-09T12:15:51;29.40;53.30
37560;DHT22;23398;50.928;7.084;2023-10-09T12:18:19;29.30;53.90
37560;DHT22;23398;50.928;7.084;2023-10-09T12:20:44;29.20;53.70
37560;DHT22;23398;50.928;7.084;2023-10-09T12:23:17;29.20;53.90
37560;DHT22;23398;50.928;7.084;2023-10-09T12:25:43;29.10;54.00
37560;DHT22;23398;50.928;7.084;2023-10-09T12:28:12;28.90;52.80
37560;DHT22;23398;50.928;7.084;2023-10-09T12:30:39;28.90;54.30
37560;DHT22;23398;50.928;7.084;2023-10-09T12:33:05;28.80;54.20
37560;DHT22;23398;50.928;7.084;2023-10-09T12:35:39;28.80;54.20
37560;DHT22;23398;50.928;7.084;2023-10-09T12:38:08;28.80;54.20
37560;DHT22;23398;50.928;7.084;2023-10-09T12:40:38;28.80;54.30
37560;DHT22;23398;50.928;7.084;2023-10-09T12:43:06;28.80;54.80
37560;DHT22;23398;50.928;7.084;2023-10-09T12:45:41;28.80;54.40
37560;DHT22;23398;50.928;7.084;2023-10-09T12:48:07;28.70;54.70
37560;DHT22;23398;50.928;7.084;2023-10-09T12:50:34;28.70;54.60
37560;DHT22;23398;50.928;7.084;2023-10-09T12:53:00;28.70;55.60
37560;DHT22;23398;50.928;7.084;2023-10-09T12:55:38;28.60;54.80
37560;DHT22;23398;50.928;7.084;2023-10-09T12:58:08;28.50;55.00
37560;DHT22;23398;50.928;7.084;2023-10-09T13:00:38;28.50;54.70
37560;DHT22;23398;50.928;7.084;2023-10-09T13:03:10;28.40;54.90
37560;DHT22;23398;50.928;7.084;2023-10-09T13:05:46;28.40;55.20
37560;DHT22;23398;50.928;7.084;2023-10-09T13:08:25;28.30;55.00
37560;DHT22;23398;50.928;7.084;2023-10-09T13:11:01;28.20;55.60
37560;DHT22;23398;50.928;7.084;2023-10-09T13:13:33;28.20;55.40
37560;DHT22;23398;50.928;7.084;2023-10-09T13:16:15;28.10;55.30
37560;DHT22;23398;50.928;7.084;2023-10-09T13:18:51;28.00;55.40
37560;DHT22;23398;50.928;7.084;2023-10-09T13:23:43;27.90;55.80
37560;DHT22;23398;50.928;7.084;2023-10-09T13:26:16;27.80;55.80
37560;DHT22;23398;50.928;7.084;2023-10-09T13:28:50;27.70;55.70
37560;DHT22;23398;50.928;7.084;2023-10-09T13:31:17;27.60;55.90
37560;DHT22;23398;50.928;7.084;2023-10-09T13:33:43;27.50;55.50
37560;DHT22;23398;50.928;7.084;2023-10-09T13:36:11;27.50;55.60
37560;DHT22;23398;50.928;7.084;2023-10-09T13:39:07;27.40;55.60
37560;DHT22;23398;50.928;7.084;2023-10-09T13:41:53;27.40;56.10
37560;DHT22;23398;50.928;7.084;2023-10-09T13:44:30;27.30;55.80
37560;DHT22;23398;50.928;7.084;2023-10-09T13:46:57;27.20;56.10
37560;DHT22;23398;50.928;7.084;2023-10-09T13:49:23;27.10;55.90
37560;DHT22;23398;50.928;7.084;2023-10-09T13:51:50;27.10;56.30
37560;DHT22;23398;50.928;7.084;2023-10-09T13:54:16;27.00;56.30
37560;DHT22;23398;50.928;7.084;2023-10-09T13:57:08;26.90;56.30
37560;DHT22;23398;50.928;7.084;2023-10-09T13:59:37;26.80;56.50
37560;DHT22;23398;50.928;7.084;2023-10-09T14:02:08;26.80;56.70
37560;DHT22;23398;50.928;7.084;2023-10-09T14:04:42;26.70;56.80
37560;DHT22;23398;50.928;7.084;2023-10-09T14:07:09;26.60;57.20
37560;DHT22;23398;50.928;7.084;2023-10-09T14:09:35;26.60;57.50
37560;DHT22;23398;50.928;7.084;2023-10-09T14:12:05;26.50;57.60
37560;DHT22;23398;50.928;7.084;2023-10-09T14:14:37;26.40;57.80
37560;DHT22;23398;50.928;7.084;2023-10-09T14:17:07;26.30;57.80
37560;DHT22;23398;50.928;7.084;2023-10-09T14:19:40;26.30;58.10
37560;DHT22;23398;50.928;7.084;2023-10-09T14:22:07;26.20;58.20
37560;DHT22;23398;50.928;7.084;2023-10-09T14:24:33;26.20;58.40
37560;DHT22;23398;50.928;7.084;2023-10-09T14:27:01;26.20;59.20
37560;DHT22;23398;50.928;7.084;2023-10-09T14:29:33;26.10;59.00
37560;DHT22;23398;50.928;7.084;2023-10-09T14:32:03;26.10;58.90
37560;DHT22;23398;50.928;7.084;2023-10-09T14:34:29;26.10;58.80
37560;DHT22;23398;50.928;7.084;2023-10-09T14:36:59;26.00;58.80
37560;DHT22;23398;50.928;7.084;2023-10-09T14:39:26;26.00;58.80
37560;DHT22;23398;50.928;7.084;2023-10-09T14:41:52;25.90;58.80
37560;DHT22;23398;50.928;7.084;2023-10-09T14:44:20;25.80;58.90
37560;DHT22;23398;50.928;7.084;2023-10-09T14:46:46;25.80;58.80
37560;DHT22;23398;50.928;7.084;2023-10-09T14:49:12;25.80;59.40
37560;DHT22;23398;50.928;7.084;2023-10-09T14:51:40;25.70;59.40
37560;DHT22;23398;50.928;7.084;2023-10-09T14:54:05;25.70;59.60
37560;DHT22;23398;50.928;7.084;2023-10-09T14:56:33;25.70;59.90
37560;DHT22;23398;50.928;7.084;2023-10-09T14:59:02;25.80;59.60
37560;DHT22;23398;50.928;7.084;2023-10-09T15:01:28;25.70;60.20
37560;DHT22;23398;50.928;7.084;2023-10-09T15:03:55;25.70;59.50
37560;DHT22;23398;50.928;7.084;2023-10-09T15:06:23;25.70;59.60
37560;DHT22;23398;50.928;7.084;2023-10-09T15:08:49;25.70;59.40
37560;DHT22;23398;50.928;7.084;2023-10-09T15:11:15;25.70;59.60
37560;DHT22;23398;50.928;7.084;2023-10-09T15:13:41;25.60;59.30
37560;DHT22;23398;50.928;7.084;2023-10-09T15:16:07;25.60;59.40
37560;DHT22;23398;50.928;7.084;2023-10-09T15:18:33;25.60;59.50
37560;DHT22;23398;50.928;7.084;2023-10-09T15:20:59;25.60;59.60
37560;DHT22;23398;50.928;7.084;2023-10-09T15:23:26;25.40;59.60
37560;DHT22;23398;50.928;7.084;2023-10-09T15:25:51;25.40;59.90
37560;DHT22;23398;50.928;7.084;2023-10-09T15:28:22;25.30;60.30
37560;DHT22;23398;50.928;7.084;2023-10-09T15:30:48;25.30;60.60
37560;DHT22;23398;50.928;7.084;2023-10-09T15:33:15;25.30;60.80
37560;DHT22;23398;50.928;7.084;2023-10-09T15:35:45;25.30;60.90
37560;DHT22;23398;50.928;7.084;2023-10-09T15:38:12;25.30;60.80
37560;DHT22;23398;50.928;7.084;2023-10-09T15:40:39;25.30;61.10
37560;DHT22;23398;50.928;7.084;2023-10-09T15:43:08;25.30;61.00
37560;DHT22;23398;50.928;7.084;2023-10-09T15:45:41;25.20;61.20
37560;DHT22;23398;50.928;7.084;2023-10-09T15:48:07;25.20;61.20
37560;DHT22;23398;50.928;7.084;2023-10-09T15:50:33;25.20;60.90
37560;DHT22;23398;50.928;7.084;2023-10-09T15:53:00;25.20;60.90
37560;DHT22;23398;50.928;7.084;2023-10-09T15:55:28;25.20;60.60
37560;DHT22;23398;50.928;7.084;2023-10-09T15:57:54;25.30;60.70
37560;DHT22;23398;50.928;7.084;2023-10-09T16:00:21;25.10;60.60
37560;DHT22;23398;50.928;7.084;2023-10-09T16:02:48;25.10;60.60
37560;DHT22;23398;50.928;7.084;2023-10-09T16:05:14;25.00;60.40
37560;DHT22;23398;50.928;7.084;2023-10-09T16:07:42;25.00;60.60
37560;DHT22;23398;50.928;7.084;2023-10-09T16:10:09;24.90;60.60
37560;DHT22;23398;50.928;7.084;2023-10-09T16:12:40;24.80;60.70
37560;DHT22;23398;50.928;7.084;2023-10-09T16:15:08;24.80;60.90
37560;DHT22;23398;50.928;7.084;2023-10-09T16:17:34;24.70;61.10
37560;DHT22;23398;50.928;7.084;2023-10-09T16:20:00;24.70;61.00
37560;DHT22;23398;50.928;7.084;2023-10-09T16:22:27;24.50;60.90
37560;DHT22;23398;50.928;7.084;2023-10-09T16:24:55;24.40;60.90
37560;DHT22;23398;50.928;7.084;2023-10-09T16:27:25;24.30;61.00